sensor_id;sensor_type;location;lat;lon;timestamp;temperature;humidity
16929;DHT22;8581;47.334;11.190;2023-06-04T00:00:55;10.80;99.90
16929;DHT22;8581;47.334;11.190;2023-06-04T00:03:27;11.10;99.90
16929;DHT22;8581;47.334;11.190;2023-06-04T00:05:58;11.00;99.90
16929;DHT22;8581;47.334;11.190;2023-06-04T00:08:30;10.80;99.90
16929;DHT22;8581;47.334;11.190;2023-06-04T00:11:02;10.60;99.90
16929;DHT22;8581;47.334;11.190;2023-06-04T00:13:33;10.60;99.90
16929;DHT22;8581;47.334;11.190;2023-06-04T00:16:05;10.50;99.90
16929;DHT22;8581;47.334;11.190;2023-06-04T00:18:36;10.50;99.90
16929;DHT22;8581;47.334;11.190;2023-06-04T00:21:08;10.60;99.90
16929;DHT22;8581;47.334;11.190;2023-06-04T00:23:39;10.50;99.90
16929;DHT22;8581;47.334;11.190;2023-06-04T00:26:11;10.40;99.90
16929;DHT22;8581;47.334;11.190;2023-06-04T00:28:43;10.50;99.90
16929;DHT22;8581;47.334;11.190;2023-06-04T00:31:14;10.30;99.90
16929;DHT22;8581;47.334;11.190;2023-06-04T00:33:46;10.20;99.90
16929;DHT22;8581;47.334;11.190;2023-06-04T00:36:17;10.10;99.90
16929;DHT22;8581;47.334;11.190;2023-06-04T00:38:49;10.00;99.90
16929;DHT22;8581;47.334;11.190;2023-06-04T00:41:21;9.90;99.90
16929;DHT22;8581;47.334;11.190;2023-06-04T00:43:52;9.90;99.90
16929;DHT22;8581;47.334;11.190;2023-06-04T00:46:27;10.00;99.90
16929;DHT22;8581;47.334;11.190;2023-06-04T00:48:58;10.00;99.90
16929;DHT22;8581;47.334;11.190;2023-06-04T00:51:30;9.90;99.90
16929;DHT22;8581;47.334;11.190;2023-06-04T00:54:02;10.10;99.90
16929;DHT22;8581;47.334;11.190;2023-06-04T00:56:34;10.10;99.90
16929;DHT22;8581;47.334;11.190;2023-06-04T00:59:05;9.80;99.90
16929;DHT22;8581;47.334;11.190;2023-06-04T01:02:14;9.70;99.90
16929;DHT22;8581;47.334;11.190;2023-06-04T01:04:33;9.60;99.90
16929;DHT22;8581;47.334;11.190;2023-06-04T01:07:03;9.70;99.90
16929;DHT22;8581;47.334;11.190;2023-06-04T01:09:35;9.60;99.90
16929;DHT22;8581;47.334;11.190;2023-06-04T01:12:07;9.50;99.90
16929;DHT22;8581;47.334;11.190;2023-06-04T01:14:40;9.50;99.90
16929;DHT22;8581;47.334;11.190;2023-06-04T01:17:18;9.60;99.90
16929;DHT22;8581;47.334;11.190;2023-06-04T01:20:13;9.50;99.90
16929;DHT22;8581;47.334;11.190;2023-06-04T01:25:22;9.20;99.90
16929;DHT22;8581;47.334;11.190;2023-06-04T01:27:54;9.20;99.90
16929;DHT22;8581;47.334;11.190;2023-06-04T01:30:26;9.30;99.90
16929;DHT22;8581;47.334;11.190;2023-06-04T01:32:57;9.30;99.90
16929;DHT22;8581;47.334;11.190;2023-06-04T01:35:28;9.20;99.90
16929;DHT22;8581;47.334;11.190;2023-06-04T01:38:00;9.30;99.90
16929;DHT22;8581;47.334;11.190;2023-06-04T01:40:31;9.20;99.90
16929;DHT22;8581;47.334;11.190;2023-06-04T01:43:03;9.10;99.90
16929;DHT22;8581;47.334;11.190;2023-06-04T01:45:35;9.00;99.90
16929;DHT22;8581;47.334;11.190;2023-06-04T01:48:06;9.00;99.90
16929;DHT22;8581;47.334;11.190;2023-06-04T01:50:38;9.10;99.90
16929;DHT22;8581;47.334;11.190;2023-06-04T01:53:09;9.10;99.90
16929;DHT22;8581;47.334;11.190;2023-06-04T01:55:41;9.00;99.90
16929;DHT22;8581;47.334;11.190;2023-06-04T01:58:13;8.90;99.90
16929;DHT22;8581;47.334;11.190;2023-06-04T02:00:44;8.80;99.90
16929;DHT22;8581;47.334;11.190;2023-06-04T02:03:16;8.70;99.90
16929;DHT22;8581;47.334;11.190;2023-06-04T02:05:48;7.90;99.90
16929;DHT22;8581;47.334;11.190;2023-06-04T02:08:19;8.50;99.90
16929;DHT22;8581;47.334;11.190;2023-06-04T02:10:51;8.40;99.90
16929;DHT22;8581;47.334;11.190;2023-06-04T02:13:22;8.60;99.90
16929;DHT22;8581;47.334;11.190;2023-06-04T02:15:54;8.70;99.90
16929;DHT22;8581;47.334;11.190;2023-06-04T02:18:25;8.60;99.90
16929;DHT22;8581;47.334;11.190;2023-06-04T02:20:57;8.50;99.90
16929;DHT22;8581;47.334;11.190;2023-06-04T02:23:29;8.50;99.90
16929;DHT22;8581;47.334;11.190;2023-06-04T02:26:00;8.60;99.90
16929;DHT22;8581;47.334;11.190;2023-06-04T02:28:32;8.70;99.90
16929;DHT22;8581;47.334;11.190;2023-06-04T02:31:03;8.50;99.90
16929;DHT22;8581;47.334;11.190;2023-06-04T02:33:35;8.50;99.90
16929;DHT22;8581;47.334;11.190;2023-06-04T02:36:07;8.40;99.90
16929;DHT22;8581;47.334;11.190;2023-06-04T02:38:39;8.40;99.90
16929;DHT22;8581;47.334;11.190;2023-06-04T02:41:10;8.30;99.90
16929;DHT22;8581;47.334;11.190;2023-06-04T02:43:42;8.40;99.90
16929;DHT22;8581;47.334;11.190;2023-06-04T02:46:14;8.30;99.90
16929;DHT22;8581;47.334;11.190;2023-06-04T02:48:45;8.10;99.90
16929;DHT22;8581;47.334;11.190;2023-06-04T02:51:17;8.10;99.90
16929;DHT22;8581;47.334;11.190;2023-06-04T02:53:48;8.20;99.90
16929;DHT22;8581;47.334;11.190;2023-06-04T02:56:20;8.40;99.90
16929;DHT22;8581;47.334;11.190;2023-06-04T02:58:53;8.30;99.90
16929;DHT22;8581;47.334;11.190;2023-06-04T03:01:25;8.20;99.90
16929;DHT22;8581;47.334;11.190;2023-06-04T03:03:56;8.10;99.90
16929;DHT22;8581;47.334;11.190;2023-06-04T03:06:28;8.10;99.90
16929;DHT22;8581;47.334;11.190;2023-06-04T03:09:00;8.10;99.90
16929;DHT22;8581;47.334;11.190;2023-06-04T03:11:31;8.10;99.90
16929;DHT22;8581;47.334;11.190;2023-06-04T03:14:03;8.10;99.90
16929;DHT22;8581;47.334;11.190;2023-06-04T03:16:35;8.10;99.90
16929;DHT22;8581;47.334;11.190;2023-06-04T03:19:06;8.00;99.90
16929;DHT22;8581;47.334;11.190;2023-06-04T03:21:38;8.10;99.90
16929;DHT22;8581;47.334;11.190;2023-06-04T03:24:09;8.00;99.90
16929;DHT22;8581;47.334;11.190;2023-06-04T03:26:41;8.00;99.90
16929;DHT22;8581;47.334;11.190;2023-06-04T03:29:13;8.00;99.90
16929;DHT22;8581;47.334;11.190;2023-06-04T03:31:44;8.20;99.90
16929;DHT22;8581;47.334;11.190;2023-06-04T03:34:16;8.20;99.90
16929;DHT22;8581;47.334;11.190;2023-06-04T03:36:47;8.20;99.90
16929;DHT22;8581;47.334;11.190;2023-06-04T03:39:19;8.10;99.90
16929;DHT22;8581;47.334;11.190;2023-06-04T03:41:51;8.10;99.90
16929;DHT22;8581;47.334;11.190;2023-06-04T03:44:22;8.30;99.90
16929;DHT22;8581;47.334;11.190;2023-06-04T03:46:54;8.10;99.90
16929;DHT22;8581;47.334;11.190;2023-06-04T03:49:26;8.10;99.90
16929;DHT22;8581;47.334;11.190;2023-06-04T03:51:57;8.10;99.90
16929;DHT22;8581;47.334;11.190;2023-06-04T03:54:29;8.00;99.90
16929;DHT22;8581;47.334;11.190;2023-06-04T03:57:00;8.10;99.90
16929;DHT22;8581;47.334;11.190;2023-06-04T03:59:32;8.20;99.90
16929;DHT22;8581;47.334;11.190;2023-06-04T04:02:04;8.10;99.90
16929;DHT22;8581;47.334;11.190;2023-06-04T04:04:35;8.10;99.90
16929;DHT22;8581;47.334;11.190;2023-06-04T04:07:07;8.10;99.90
16929;DHT22;8581;47.334;11.190;2023-06-04T04:09:39;8.00;99.90
16929;DHT22;8581;47.334;11.190;2023-06-04T04:12:10;8.10;99.90
16929;DHT22;8581;47.334;11.190;2023-06-04T04:14:42;8.20;99.90
16929;DHT22;8581;47.334;11.190;2023-06-04T04:17:14;8.20;99.90
16929;DHT22;8581;47.334;11.190;2023-06-04T04:19:45;8.20;99.90
16929;DHT22;8581;47.334;11.190;2023-06-04T04:22:16;8.20;99.90
16929;DHT22;8581;47.334;11.190;2023-06-04T04:24:48;8.20;99.90
16929;DHT22;8581;47.334;11.190;2023-06-04T04:27:20;8.20;99.90
16929;DHT22;8581;47.334;11.190;2023-06-04T04:29:51;8.50;99.90
16929;DHT22;8581;47.334;11.190;2023-06-04T04:32:23;8.40;99.90
16929;DHT22;8581;47.334;11.190;2023-06-04T04:34:54;8.70;99.90
16929;DHT22;8581;47.334;11.190;2023-06-04T04:37:26;8.80;99.90
16929;DHT22;8581;47.334;11.190;2023-06-04T04:39:58;8.60;99.90
16929;DHT22;8581;47.334;11.190;2023-06-04T04:42:29;8.60;99.90
16929;DHT22;8581;47.334;11.190;2023-06-04T04:45:01;8.70;99.90
16929;DHT22;8581;47.334;11.190;2023-06-04T04:47:32;8.80;99.90
16929;DHT22;8581;47.334;11.190;2023-06-04T04:50:05;8.90;99.90
16929;DHT22;8581;47.334;11.190;2023-06-04T04:52:37;9.00;99.90
16929;DHT22;8581;47.334;11.190;2023-06-04T04:55:09;9.20;99.90
16929;DHT22;8581;47.334;11.190;2023-06-04T04:57:41;9.40;99.90
16929;DHT22;8581;47.334;11.190;2023-06-04T05:00:13;9.50;99.90
16929;DHT22;8581;47.334;11.190;2023-06-04T05:02:45;9.60;99.90
16929;DHT22;8581;47.334;11.190;2023-06-04T05:05:17;9.70;99.90
16929;DHT22;8581;47.334;11.190;2023-06-04T05:07:48;9.90;99.90
16929;DHT22;8581;47.334;11.190;2023-06-04T05:10:20;10.10;99.90
16929;DHT22;8581;47.334;11.190;2023-06-04T05:12:53;10.30;99.90
16929;DHT22;8581;47.334;11.190;2023-06-04T05:15:25;10.50;99.90
16929;DHT22;8581;47.334;11.190;2023-06-04T05:17:55;10.70;99.90
16929;DHT22;8581;47.334;11.190;2023-06-04T05:20:27;10.80;99.90
16929;DHT22;8581;47.334;11.190;2023-06-04T05:22:59;10.90;99.90
16929;DHT22;8581;47.334;11.190;2023-06-04T05:25:30;11.00;99.90
16929;DHT22;8581;47.334;11.190;2023-06-04T05:28:02;11.20;99.90
16929;DHT22;8581;47.334;11.190;2023-06-04T05:30:33;11.30;99.90
16929;DHT22;8581;47.334;11.190;2023-06-04T05:33:05;11.50;99.90
16929;DHT22;8581;47.334;11.190;2023-06-04T05:35:37;11.60;99.90
16929;DHT22;8581;47.334;11.190;2023-06-04T05:38:08;11.90;99.90
16929;DHT22;8581;47.334;11.190;2023-06-04T05:40:40;12.20;99.90
16929;DHT22;8581;47.334;11.190;2023-06-04T05:43:11;12.30;99.90
16929;DHT22;8581;47.334;11.190;2023-06-04T05:45:43;12.60;99.90
16929;DHT22;8581;47.334;11.190;2023-06-04T05:48:15;12.80;99.90
16929;DHT22;8581;47.334;11.190;2023-06-04T05:50:46;12.90;99.90
16929;DHT22;8581;47.334;11.190;2023-06-04T05:53:18;13.00;99.90
16929;DHT22;8581;47.334;11.190;2023-06-04T05:55:49;13.40;99.90
16929;DHT22;8581;47.334;11.190;2023-06-04T05:58:21;13.20;99.90
16929;DHT22;8581;47.334;11.190;2023-06-04T06:00:53;13.20;99.90
16929;DHT22;8581;47.334;11.190;2023-06-04T06:03:24;13.20;99.90
16929;DHT22;8581;47.334;11.190;2023-06-04T06:05:56;13.40;99.90
16929;DHT22;8581;47.334;11.190;2023-06-04T06:08:28;13.60;99.90
16929;DHT22;8581;47.334;11.190;2023-06-04T06:10:59;13.80;99.90
16929;DHT22;8581;47.334;11.190;2023-06-04T06:13:31;13.90;99.90
16929;DHT22;8581;47.334;11.190;2023-06-04T06:16:03;14.10;99.90
16929;DHT22;8581;47.334;11.190;2023-06-04T06:18:34;13.80;99.90
16929;DHT22;8581;47.334;11.190;2023-06-04T06:21:06;13.70;99.90
16929;DHT22;8581;47.334;11.190;2023-06-04T06:23:37;13.60;99.90
16929;DHT22;8581;47.334;11.190;2023-06-04T06:26:09;13.80;99.90
16929;DHT22;8581;47.334;11.190;2023-06-04T06:28:40;13.90;99.90
16929;DHT22;8581;47.334;11.190;2023-06-04T06:31:12;14.00;99.90
16929;DHT22;8581;47.334;11.190;2023-06-04T06:33:44;14.20;99.90
16929;DHT22;8581;47.334;11.190;2023-06-04T06:36:15;14.40;99.90
16929;DHT22;8581;47.334;11.190;2023-06-04T06:38:47;14.30;99.90
16929;DHT22;8581;47.334;11.190;2023-06-04T06:41:19;14.20;99.90
16929;DHT22;8581;47.334;11.190;2023-06-04T06:43:50;14.30;99.90
16929;DHT22;8581;47.334;11.190;2023-06-04T06:46:22;14.60;99.90
16929;DHT22;8581;47.334;11.190;2023-06-04T06:48:53;14.50;99.90
16929;DHT22;8581;47.334;11.190;2023-06-04T06:51:25;14.80;99.90
16929;DHT22;8581;47.334;11.190;2023-06-04T06:53:57;14.80;99.90
16929;DHT22;8581;47.334;11.190;2023-06-04T06:56:28;15.20;99.90
16929;DHT22;8581;47.334;11.190;2023-06-04T06:59:00;15.20;99.90
16929;DHT22;8581;47.334;11.190;2023-06-04T07:01:31;15.30;99.90
16929;DHT22;8581;47.334;11.190;2023-06-04T07:04:03;15.40;99.90
16929;DHT22;8581;47.334;11.190;2023-06-04T07:06:35;15.40;99.90
16929;DHT22;8581;47.334;11.190;2023-06-04T07:09:07;15.20;99.90
16929;DHT22;8581;47.334;11.190;2023-06-04T07:11:38;15.40;99.90
16929;DHT22;8581;47.334;11.190;2023-06-04T07:14:10;15.20;99.90
16929;DHT22;8581;47.334;11.190;2023-06-04T07:16:42;15.30;99.90
16929;DHT22;8581;47.334;11.190;2023-06-04T07:19:15;15.40;99.90
16929;DHT22;8581;47.334;11.190;2023-06-04T07:21:47;15.60;99.90
16929;DHT22;8581;47.334;11.190;2023-06-04T07:24:18;15.60;99.90
16929;DHT22;8581;47.334;11.190;2023-06-04T07:26:50;15.80;99.90
16929;DHT22;8581;47.334;11.190;2023-06-04T07:29:22;15.70;99.90
16929;DHT22;8581;47.334;11.190;2023-06-04T07:31:53;15.50;99.90
16929;DHT22;8581;47.334;11.190;2023-06-04T07:34:25;15.40;99.90
16929;DHT22;8581;47.334;11.190;2023-06-04T07:36:56;15.30;99.90
16929;DHT22;8581;47.334;11.190;2023-06-04T07:39:28;15.30;99.90
16929;DHT22;8581;47.334;11.190;2023-06-04T07:42:00;15.50;99.90
16929;DHT22;8581;47.334;11.190;2023-06-04T07:44:31;15.70;99.90
16929;DHT22;8581;47.334;11.190;2023-06-04T07:47:03;15.80;99.90
16929;DHT22;8581;47.334;11.190;2023-06-04T07:49:35;15.70;99.90
16929;DHT22;8581;47.334;11.190;2023-06-04T07:52:07;15.60;99.90
16929;DHT22;8581;47.334;11.190;2023-06-04T07:54:38;15.70;99.90
16929;DHT22;8581;47.334;11.190;2023-06-04T07:57:10;15.80;99.90
16929;DHT22;8581;47.334;11.190;2023-06-04T07:59:41;16.00;99.90
16929;DHT22;8581;47.334;11.190;2023-06-04T08:02:13;16.00;99.90
16929;DHT22;8581;47.334;11.190;2023-06-04T08:04:45;15.90;99.90
16929;DHT22;8581;47.334;11.190;2023-06-04T08:07:17;15.90;99.90
16929;DHT22;8581;47.334;11.190;2023-06-04T08:09:48;15.90;99.90
16929;DHT22;8581;47.334;11.190;2023-06-04T08:12:20;16.10;99.90
16929;DHT22;8581;47.334;11.190;2023-06-04T08:14:52;16.30;99.90
16929;DHT22;8581;47.334;11.190;2023-06-04T08:17:23;16.60;99.90
16929;DHT22;8581;47.334;11.190;2023-06-04T08:19:55;16.50;99.90
16929;DHT22;8581;47.334;11.190;2023-06-04T08:22:26;16.60;99.90
16929;DHT22;8581;47.334;11.190;2023-06-04T08:24:58;16.90;99.90
16929;DHT22;8581;47.334;11.190;2023-06-04T08:27:30;17.30;99.90
16929;DHT22;8581;47.334;11.190;2023-06-04T08:30:01;17.40;99.90
16929;DHT22;8581;47.334;11.190;2023-06-04T08:32:33;17.30;99.90
16929;DHT22;8581;47.334;11.190;2023-06-04T08:35:05;17.20;99.90
16929;DHT22;8581;47.334;11.190;2023-06-04T08:37:37;17.40;99.90
16929;DHT22;8581;47.334;11.190;2023-06-04T08:40:09;17.30;99.90
16929;DHT22;8581;47.334;11.190;2023-06-04T08:42:42;17.20;99.90
16929;DHT22;8581;47.334;11.190;2023-06-04T08:45:13;17.20;99.90
16929;DHT22;8581;47.334;11.190;2023-06-04T08:47:47;17.60;99.90
16929;DHT22;8581;47.334;11.190;2023-06-04T08:50:17;18.20;99.90
16929;DHT22;8581;47.334;11.190;2023-06-04T08:52:51;18.50;99.90
16929;DHT22;8581;47.334;11.190;2023-06-04T08:55:21;18.60;99.90
16929;DHT22;8581;47.334;11.190;2023-06-04T08:57:52;18.80;99.90
16929;DHT22;8581;47.334;11.190;2023-06-04T09:00:24;19.10;99.90
16929;DHT22;8581;47.334;11.190;2023-06-04T09:02:55;19.70;99.90
16929;DHT22;8581;47.334;11.190;2023-06-04T09:05:27;20.10;99.90
16929;DHT22;8581;47.334;11.190;2023-06-04T09:08:00;20.10;99.90
16929;DHT22;8581;47.334;11.190;2023-06-04T09:10:30;19.90;99.90
16929;DHT22;8581;47.334;11.190;2023-06-04T09:13:02;20.00;99.90
16929;DHT22;8581;47.334;11.190;2023-06-04T09:15:34;19.90;99.90
16929;DHT22;8581;47.334;11.190;2023-06-04T09:18:05;20.40;99.90
16929;DHT22;8581;47.334;11.190;2023-06-04T09:20:37;20.20;99.90
16929;DHT22;8581;47.334;11.190;2023-06-04T09:23:13;20.20;99.90
16929;DHT22;8581;47.334;11.190;2023-06-04T09:25:45;20.10;99.90
16929;DHT22;8581;47.334;11.190;2023-06-04T09:28:16;20.00;99.90
16929;DHT22;8581;47.334;11.190;2023-06-04T09:30:51;19.70;99.90
16929;DHT22;8581;47.334;11.190;2023-06-04T09:33:22;19.70;99.90
16929;DHT22;8581;47.334;11.190;2023-06-04T09:35:55;19.80;99.90
16929;DHT22;8581;47.334;11.190;2023-06-04T09:38:34;20.10;99.90
16929;DHT22;8581;47.334;11.190;2023-06-04T09:41:12;20.30;99.90
16929;DHT22;8581;47.334;11.190;2023-06-04T09:43:43;20.80;99.90
16929;DHT22;8581;47.334;11.190;2023-06-04T09:46:15;21.30;99.90
16929;DHT22;8581;47.334;11.190;2023-06-04T09:48:47;21.50;99.90
16929;DHT22;8581;47.334;11.190;2023-06-04T09:51:18;21.50;99.90
16929;DHT22;8581;47.334;11.190;2023-06-04T09:53:53;21.30;99.90
16929;DHT22;8581;47.334;11.190;2023-06-04T09:56:25;21.60;99.90
16929;DHT22;8581;47.334;11.190;2023-06-04T09:58:58;21.90;99.90
16929;DHT22;8581;47.334;11.190;2023-06-04T10:01:29;22.30;99.90
16929;DHT22;8581;47.334;11.190;2023-06-04T10:04:02;22.60;99.90
16929;DHT22;8581;47.334;11.190;2023-06-04T10:06:33;22.80;99.90
16929;DHT22;8581;47.334;11.190;2023-06-04T10:09:05;22.60;99.90
16929;DHT22;8581;47.334;11.190;2023-06-04T10:11:40;22.40;99.90
16929;DHT22;8581;47.334;11.190;2023-06-04T10:14:17;21.70;99.90
16929;DHT22;8581;47.334;11.190;2023-06-04T10:16:46;21.40;99.90
16929;DHT22;8581;47.334;11.190;2023-06-04T10:19:18;21.30;99.90
16929;DHT22;8581;47.334;11.190;2023-06-04T10:21:49;21.20;99.90
16929;DHT22;8581;47.334;11.190;2023-06-04T10:24:21;21.50;99.90
16929;DHT22;8581;47.334;11.190;2023-06-04T10:26:54;21.90;99.90
16929;DHT22;8581;47.334;11.190;2023-06-04T10:29:26;22.00;99.90
16929;DHT22;8581;47.334;11.190;2023-06-04T10:31:57;22.40;99.90
16929;DHT22;8581;47.334;11.190;2023-06-04T10:34:29;22.70;99.90
16929;DHT22;8581;47.334;11.190;2023-06-04T10:37:02;22.60;99.90
16929;DHT22;8581;47.334;11.190;2023-06-04T10:39:33;23.40;99.90
16929;DHT22;8581;47.334;11.190;2023-06-04T10:42:05;24.30;99.90
16929;DHT22;8581;47.334;11.190;2023-06-04T10:44:45;25.50;99.90
16929;DHT22;8581;47.334;11.190;2023-06-04T10:47:22;26.70;99.90
16929;DHT22;8581;47.334;11.190;2023-06-04T10:49:54;27.80;97.90
16929;DHT22;8581;47.334;11.190;2023-06-04T10:52:25;28.60;97.70
16929;DHT22;8581;47.334;11.190;2023-06-04T10:55:02;28.70;95.00
16929;DHT22;8581;47.334;11.190;2023-06-04T10:57:28;28.80;93.70
16929;DHT22;8581;47.334;11.190;2023-06-04T11:00:00;29.20;93.40
16929;DHT22;8581;47.334;11.190;2023-06-04T11:02:31;28.90;95.60
16929;DHT22;8581;47.334;11.190;2023-06-04T11:05:05;29.70;92.10
16929;DHT22;8581;47.334;11.190;2023-06-04T11:07:43;30.30;92.40
16929;DHT22;8581;47.334;11.190;2023-06-04T11:10:15;29.80;90.30
16929;DHT22;8581;47.334;11.190;2023-06-04T11:12:48;29.30;90.50
16929;DHT22;8581;47.334;11.190;2023-06-04T11:15:19;28.50;90.20
16929;DHT22;8581;47.334;11.190;2023-06-04T11:17:52;28.60;90.40
16929;DHT22;8581;47.334;11.190;2023-06-04T11:20:24;29.00;90.90
16929;DHT22;8581;47.334;11.190;2023-06-04T11:23:01;28.80;93.10
16929;DHT22;8581;47.334;11.190;2023-06-04T11:25:36;27.10;92.80
16929;DHT22;8581;47.334;11.190;2023-06-04T11:28:08;25.50;95.00
16929;DHT22;8581;47.334;11.190;2023-06-04T11:30:42;24.40;96.50
16929;DHT22;8581;47.334;11.190;2023-06-04T11:33:20;23.90;97.10
16929;DHT22;8581;47.334;11.190;2023-06-04T11:35:51;23.70;97.10
16929;DHT22;8581;47.334;11.190;2023-06-04T11:38:25;23.20;98.00
16929;DHT22;8581;47.334;11.190;2023-06-04T11:40:58;23.40;98.40
16929;DHT22;8581;47.334;11.190;2023-06-04T11:43:29;24.10;99.90
16929;DHT22;8581;47.334;11.190;2023-06-04T11:46:05;26.70;96.80
16929;DHT22;8581;47.334;11.190;2023-06-04T11:48:32;28.70;95.40
16929;DHT22;8581;47.334;11.190;2023-06-04T11:51:08;29.00;93.80
16929;DHT22;8581;47.334;11.190;2023-06-04T11:53:40;30.50;92.50
16929;DHT22;8581;47.334;11.190;2023-06-04T11:56:11;30.30;91.10
16929;DHT22;8581;47.334;11.190;2023-06-04T11:58:43;30.90;86.80
16929;DHT22;8581;47.334;11.190;2023-06-04T12:01:15;28.90;89.60
16929;DHT22;8581;47.334;11.190;2023-06-04T12:03:46;27.40;90.60
16929;DHT22;8581;47.334;11.190;2023-06-04T12:06:18;26.70;91.90
16929;DHT22;8581;47.334;11.190;2023-06-04T12:08:53;27.30;91.30
16929;DHT22;8581;47.334;11.190;2023-06-04T12:11:26;27.20;89.90
16929;DHT22;8581;47.334;11.190;2023-06-04T12:14:00;26.50;90.20
16929;DHT22;8581;47.334;11.190;2023-06-04T12:16:31;25.20;91.40
16929;DHT22;8581;47.334;11.190;2023-06-04T12:19:07;23.70;93.60
16929;DHT22;8581;47.334;11.190;2023-06-04T12:21:41;23.10;95.30
16929;DHT22;8581;47.334;11.190;2023-06-04T12:24:14;23.20;93.20
16929;DHT22;8581;47.334;11.190;2023-06-04T12:26:45;23.20;93.70
16929;DHT22;8581;47.334;11.190;2023-06-04T12:29:17;22.90;92.10
16929;DHT22;8581;47.334;11.190;2023-06-04T12:31:48;22.80;92.60
16929;DHT22;8581;47.334;11.190;2023-06-04T12:34:20;23.20;95.30
16929;DHT22;8581;47.334;11.190;2023-06-04T12:36:52;23.70;93.30
16929;DHT22;8581;47.334;11.190;2023-06-04T12:39:23;23.80;93.70
16929;DHT22;8581;47.334;11.190;2023-06-04T12:41:55;23.80;93.50
16929;DHT22;8581;47.334;11.190;2023-06-04T12:44:26;23.90;93.70
16929;DHT22;8581;47.334;11.190;2023-06-04T12:46:58;24.20;92.40
16929;DHT22;8581;47.334;11.190;2023-06-04T12:49:30;24.10;92.60
16929;DHT22;8581;47.334;11.190;2023-06-04T12:52:01;23.90;93.20
16929;DHT22;8581;47.334;11.190;2023-06-04T12:54:33;24.60;91.80
16929;DHT22;8581;47.334;11.190;2023-06-04T12:57:05;24.80;91.40
16929;DHT22;8581;47.334;11.190;2023-06-04T12:59:38;24.70;92.30
16929;DHT22;8581;47.334;11.190;2023-06-04T13:02:10;24.80;91.00
16929;DHT22;8581;47.334;11.190;2023-06-04T13:04:43;24.90;91.70
16929;DHT22;8581;47.334;11.190;2023-06-04T13:07:15;25.10;92.60
16929;DHT22;8581;47.334;11.190;2023-06-04T13:09:49;24.90;91.30
16929;DHT22;8581;47.334;11.190;2023-06-04T13:12:20;24.80;92.70
16929;DHT22;8581;47.334;11.190;2023-06-04T13:14:52;24.40;94.60
16929;DHT22;8581;47.334;11.190;2023-06-04T13:17:24;24.00;94.90
16929;DHT22;8581;47.334;11.190;2023-06-04T13:19:55;23.20;94.50
16929;DHT22;8581;47.334;11.190;2023-06-04T13:22:27;22.90;94.60
16929;DHT22;8581;47.334;11.190;2023-06-04T13:24:58;22.00;97.30
16929;DHT22;8581;47.334;11.190;2023-06-04T13:27:30;21.20;99.90
16929;DHT22;8581;47.334;11.190;2023-06-04T13:30:02;21.30;99.90
16929;DHT22;8581;47.334;11.190;2023-06-04T13:32:34;21.30;99.90
16929;DHT22;8581;47.334;11.190;2023-06-04T13:35:06;21.20;99.70
16929;DHT22;8581;47.334;11.190;2023-06-04T13:37:38;21.30;99.30
16929;DHT22;8581;47.334;11.190;2023-06-04T13:40:11;21.20;99.90
16929;DHT22;8581;47.334;11.190;2023-06-04T13:42:42;21.00;99.90
16929;DHT22;8581;47.334;11.190;2023-06-04T13:45:15;20.40;99.90
16929;DHT22;8581;47.334;11.190;2023-06-04T13:47:48;20.50;99.90
16929;DHT22;8581;47.334;11.190;2023-06-04T13:50:20;20.10;99.90
16929;DHT22;8581;47.334;11.190;2023-06-04T13:52:52;20.10;99.90
16929;DHT22;8581;47.334;11.190;2023-06-04T13:55:24;20.30;99.90
16929;DHT22;8581;47.334;11.190;2023-06-04T13:57:56;20.00;99.90
16929;DHT22;8581;47.334;11.190;2023-06-04T14:00:27;20.30;99.90
16929;DHT22;8581;47.334;11.190;2023-06-04T14:02:59;20.30;99.90
16929;DHT22;8581;47.334;11.190;2023-06-04T14:05:30;20.10;99.90
16929;DHT22;8581;47.334;11.190;2023-06-04T14:08:02;19.90;99.90
16929;DHT22;8581;47.334;11.190;2023-06-04T14:10:34;19.50;99.90
16929;DHT22;8581;47.334;11.190;2023-06-04T14:13:05;18.60;99.90
16929;DHT22;8581;47.334;11.190;2023-06-04T14:15:38;17.70;99.90
16929;DHT22;8581;47.334;11.190;2023-06-04T14:18:29;16.60;99.90
16929;DHT22;8581;47.334;11.190;2023-06-04T14:21:01;15.50;99.90
16929;DHT22;8581;47.334;11.190;2023-06-04T14:23:32;15.10;99.90
16929;DHT22;8581;47.334;11.190;2023-06-04T14:26:04;14.70;99.90
16929;DHT22;8581;47.334;11.190;2023-06-04T14:28:35;15.00;99.90
16929;DHT22;8581;47.334;11.190;2023-06-04T14:31:07;15.20;99.90
16929;DHT22;8581;47.334;11.190;2023-06-04T14:33:39;15.20;99.90
16929;DHT22;8581;47.334;11.190;2023-06-04T14:36:11;15.30;99.90
16929;DHT22;8581;47.334;11.190;2023-06-04T14:38:43;15.10;99.90
16929;DHT22;8581;47.334;11.190;2023-06-04T14:41:15;14.50;99.90
16929;DHT22;8581;47.334;11.190;2023-06-04T14:43:47;14.20;99.90
16929;DHT22;8581;47.334;11.190;2023-06-04T14:46:19;13.70;99.90
16929;DHT22;8581;47.334;11.190;2023-06-04T14:48:51;13.50;99.90
16929;DHT22;8581;47.334;11.190;2023-06-04T14:51:22;13.50;99.90
16929;DHT22;8581;47.334;11.190;2023-06-04T14:53:54;13.60;99.90
16929;DHT22;8581;47.334;11.190;2023-06-04T14:56:27;13.70;99.90
16929;DHT22;8581;47.334;11.190;2023-06-04T14:58:59;13.80;99.90
16929;DHT22;8581;47.334;11.190;2023-06-04T15:01:31;13.90;99.90
16929;DHT22;8581;47.334;11.190;2023-06-04T15:04:02;14.00;99.90
16929;DHT22;8581;47.334;11.190;2023-06-04T15:06:34;14.10;99.90
16929;DHT22;8581;47.334;11.190;2023-06-04T15:09:05;13.80;99.90
16929;DHT22;8581;47.334;11.190;2023-06-04T15:11:37;13.70;99.90
16929;DHT22;8581;47.334;11.190;2023-06-04T15:14:09;13.90;99.90
16929;DHT22;8581;47.334;11.190;2023-06-04T15:16:40;14.00;99.90
16929;DHT22;8581;47.334;11.190;2023-06-04T15:19:12;13.80;99.90
16929;DHT22;8581;47.334;11.190;2023-06-04T15:21:43;13.50;99.90
16929;DHT22;8581;47.334;11.190;2023-06-04T15:24:15;13.70;99.90
16929;DHT22;8581;47.334;11.190;2023-06-04T15:26:47;13.80;99.90
16929;DHT22;8581;47.334;11.190;2023-06-04T15:29:21;13.80;99.90
16929;DHT22;8581;47.334;11.190;2023-06-04T15:31:52;14.00;99.90
16929;DHT22;8581;47.334;11.190;2023-06-04T15:34:24;13.80;99.90
16929;DHT22;8581;47.334;11.190;2023-06-04T15:36:56;13.80;99.90
16929;DHT22;8581;47.334;11.190;2023-06-04T15:39:27;13.70;99.90
16929;DHT22;8581;47.334;11.190;2023-06-04T15:42:00;13.70;99.90
16929;DHT22;8581;47.334;11.190;2023-06-04T15:44:31;13.90;99.90
16929;DHT22;8581;47.334;11.190;2023-06-04T15:47:03;13.90;99.90
16929;DHT22;8581;47.334;11.190;2023-06-04T15:49:35;14.00;99.90
16929;DHT22;8581;47.334;11.190;2023-06-04T15:52:07;14.00;99.90
16929;DHT22;8581;47.334;11.190;2023-06-04T15:54:38;14.10;99.90
16929;DHT22;8581;47.334;11.190;2023-06-04T15:57:10;14.30;99.90
16929;DHT22;8581;47.334;11.190;2023-06-04T15:59:41;14.30;99.90
16929;DHT22;8581;47.334;11.190;2023-06-04T16:02:13;14.20;99.90
16929;DHT22;8581;47.334;11.190;2023-06-04T16:04:45;14.20;99.90
16929;DHT22;8581;47.334;11.190;2023-06-04T16:07:20;14.10;99.90